Sterling Heights, Michigan
Current Conditions -  °F | °C
As of 8:58 PM on Monday 20 Oct 2014 (Local Time) from KMTC Reporting Station
Overcast Overcast  
Wind Chill: 55°   Ceiling: 2400
Heat Index: 55°   Visibility: 10mi
Dew Point: 49°   Wind: 5mph
Humidity: 81%   Direction: 290°WNW
Pressure: 29.81"   Gusts: NA
Location:  42.59°N, 83.01°W
Report Text: KMTC 210058Z AUTO 29004KT 10SM BKN024 OVC029 13/09 A2981 RMK AO2 SLP100 T01260094 $
Loading
Personal Weather Stations






























Interactive Weather Map
Tropical Storm Tracking
New forecast layout! Learn more

10-Day Weather Forecast

Advertisements
Track Severe Weather on mobile